Time;durP1;ratioP1;P1;durP2;ratioP2;P2;SDS_P1;SDS_P2;PMS_P1;PMS_P2;Temp;Humidity;BMP_temperature;BMP_pressure;BME280_temperature;BME280_humidity;BME280_pressure;Samples;Min_cycle;Max_cycle;Signal;HPM_P1;HPM_P2
2022/06/23 00:01:24;;;;;;;7.75;6.97;;;;;;;19.63;100.00;99433.16;6276702;22;20011;-80
2022/06/23 00:03:54;;;;;;;7.82;7.00;;;;;;;19.56;100.00;99428.84;6227055;22;20035;-80
2022/06/23 00:06:38;;;;;;;7.75;6.95;;;;;;;19.51;100.00;99421.94;6252422;22;20011;-80
2022/06/23 00:09:29;;;;;;;8.15;7.35;;;;;;;19.39;100.00;99411.94;6277118;22;20019;-80
2022/06/23 00:11:56;;;;;;;8.88;6.93;;;;;;;19.33;100.00;99416.06;6252535;22;20382;-80
2022/06/23 00:14:21;;;;;;;10.00;8.85;;;;;;;19.39;100.00;99414.00;6226341;22;20003;-80
2022/06/23 00:16:47;;;;;;;10.10;8.00;;;;;;;19.37;100.00;99417.31;6252826;22;20450;-80
2022/06/23 00:19:14;;;;;;;8.35;7.43;;;;;;;19.37;100.00;99417.31;6276875;22;20042;-80
2022/06/23 00:21:41;;;;;;;12.23;8.73;;;;;;;19.41;100.00;99412.19;6250700;22;20015;-80
2022/06/23 00:24:15;;;;;;;10.07;9.07;;;;;;;19.43;100.00;99411.72;6265263;22;20003;-95
2022/06/23 00:26:40;;;;;;;10.95;8.55;;;;;;;19.43;100.00;99412.47;6252419;22;20069;-80
2022/06/23 00:29:15;;;;;;;8.93;8.02;;;;;;;19.48;100.00;99422.97;6304494;22;20422;-80
2022/06/23 00:31:54;;;;;;;13.18;8.85;;;;;;;19.45;100.00;99423.22;6276859;22;20472;-80
2022/06/23 00:34:22;;;;;;;10.75;8.85;;;;;;;19.43;100.00;99434.97;6276007;22;20456;-80
2022/06/23 00:36:52;;;;;;;8.75;7.85;;;;;;;19.38;100.00;99440.56;6304021;22;20006;-80
2022/06/23 00:39:27;;;;;;;11.50;9.60;;;;;;;19.30;100.00;99440.31;6226548;22;20015;-81
2022/06/23 00:41:53;;;;;;;10.60;9.40;;;;;;;19.17;100.00;99442.88;6277560;22;20080;-80
2022/06/23 00:44:29;;;;;;;11.80;10.57;;;;;;;19.18;100.00;99444.41;6251349;22;20425;-80
2022/06/23 00:46:55;;;;;;;11.80;10.32;;;;;;;19.23;100.00;99449.28;6276486;22;20504;-80
2022/06/23 00:49:36;;;;;;;11.05;9.05;;;;;;;19.18;100.00;99458.47;6224676;22;20090;-80
2022/06/23 00:52:15;;;;;;;10.02;8.98;;;;;;;19.11;100.00;99473.03;6276774;22;20022;-80
2022/06/23 00:54:43;;;;;;;10.13;8.93;;;;;;;19.05;100.00;99475.06;6276210;22;20434;-80
2022/06/23 00:57:24;;;;;;;12.20;9.60;;;;;;;19.02;100.00;99467.66;6276118;22;20344;-81
2022/06/23 00:59:57;;;;;;;11.48;9.20;;;;;;;19.00;100.00;99478.66;6225277;22;20015;-81
2022/06/23 01:05:37;;;;;;;11.07;9.40;;;;;;;18.87;100.00;99475.53;6269285;22;20511;-86
2022/06/23 01:08:14;;;;;;;10.50;8.85;;;;;;;18.81;100.00;99474.75;6246297;22;20020;-85
2022/06/23 01:11:12;;;;;;;13.00;9.27;;;;;;;18.78;100.00;99478.56;6273853;22;20011;-85
2022/06/23 01:14:06;;;;;;;10.07;9.15;;;;;;;18.79;100.00;99485.75;6265983;22;20043;-86
2022/06/23 01:16:46;;;;;;;12.60;9.60;;;;;;;18.77;100.00;99482.66;6270302;22;20015;-85
2022/06/23 01:19:39;;;;;;;13.60;10.02;;;;;;;18.81;100.00;99483.19;6245914;22;20034;-86
2022/06/23 01:22:12;;;;;;;10.77;9.57;;;;;;;18.81;100.00;99494.41;6273743;22;20019;-85
2022/06/23 01:25:01;;;;;;;10.43;9.30;;;;;;;18.78;100.00;99495.44;6274021;22;20246;-85
2022/06/23 01:27:54;;;;;;;10.57;9.40;;;;;;;18.69;100.00;99484.41;6246618;22;20099;-85
2022/06/23 01:30:21;;;;;;;10.70;9.38;;;;;;;18.66;100.00;99499.47;6246995;22;20011;-85
2022/06/23 01:32:53;;;;;;;11.50;10.38;;;;;;;18.68;100.00;99502.56;6273375;22;20004;-85
2022/06/23 01:35:32;;;;;;;11.77;10.57;;;;;;;18.64;100.00;99503.56;6272100;22;20011;-86
2022/06/23 01:38:02;;;;;;;12.05;10.85;;;;;;;18.61;100.00;99510.19;6247263;22;20011;-86
2022/06/23 01:40:54;;;;;;;12.05;10.45;;;;;;;18.59;100.00;99514.78;6274270;22;20008;-85
2022/06/23 01:43:34;;;;;;;12.63;11.27;;;;;;;18.51;100.00;99522.91;6221518;22;20022;-85
2022/06/23 01:46:03;;;;;;;12.98;11.68;;;;;;;18.45;100.00;99524.13;6246970;22;20015;-86
2022/06/23 01:48:51;;;;;;;12.73;11.43;;;;;;;18.44;100.00;99523.34;6273107;22;20011;-87
2022/06/23 01:51:35;;;;;;;12.27;10.98;;;;;;;18.47;100.00;99511.13;6273923;22;20011;-86
2022/06/23 01:54:11;;;;;;;12.07;10.40;;;;;;;18.44;100.00;99517.75;6271842;22;20015;-86
2022/06/23 01:56:36;;;;;;;13.05;11.85;;;;;;;18.52;100.00;99527.25;6273912;22;20441;-86
2022/06/23 01:59:55;;;;;;;13.80;12.40;;;;;;;18.55;100.00;99531.88;6274452;22;20007;-85
2022/06/23 02:02:39;;;;;;;16.33;13.25;;;;;;;18.57;100.00;99526.50;6284909;22;20445;-85
2022/06/23 02:05:36;;;;;;;13.57;12.35;;;;;;;18.57;100.00;99529.31;6276521;22;20019;-85
2022/06/23 02:08:23;;;;;;;14.27;11.55;;;;;;;18.60;100.00;99530.38;6303826;22;20026;-85
2022/06/23 02:11:01;;;;;;;12.23;11.05;;;;;;;18.53;100.00;99511.94;6304431;22;20467;-85
2022/06/23 02:13:35;;;;;;;14.30;12.05;;;;;;;18.53;100.00;99530.84;6276024;22;20405;-85
2022/06/23 02:16:05;;;;;;;12.18;10.90;;;;;;;18.52;100.00;99518.81;6277039;22;20008;-86
2022/06/23 02:18:49;;;;;;;12.93;11.60;;;;;;;18.45;100.00;99519.28;6251159;22;20007;-81
2022/06/23 02:21:21;;;;;;;13.68;12.32;;;;;;;18.47;100.00;99510.38;6277102;22;20090;-81
2022/06/23 02:24:00;;;;;;;12.00;10.75;;;;;;;18.58;100.00;99511.22;6250427;22;20361;-81
2022/06/23 02:26:30;;;;;;;13.35;12.05;;;;;;;18.62;100.00;99510.97;6301623;22;20109;-81
2022/06/23 02:28:59;;;;;;;12.18;11.07;;;;;;;18.61;100.00;99509.41;6223517;22;20318;-80
2022/06/23 02:31:50;;;;;;;14.18;10.77;;;;;;;18.61;100.00;99517.84;6303240;22;20012;-81
2022/06/23 02:34:41;;;;;;;12.77;11.55;;;;;;;18.71;100.00;99532.44;6303389;22;20444;-81
2022/06/23 02:37:44;;;;;;;13.02;11.30;;;;;;;18.67;100.00;99543.94;6276702;22;20100;-81
2022/06/23 02:40:44;;;;;;;12.90;11.70;;;;;;;18.60;100.00;99536.00;6304190;22;20015;-81
2022/06/23 02:43:12;;;;;;;14.63;10.55;;;;;;;18.57;100.00;99537.75;6219892;22;20030;-81
2022/06/23 02:46:00;;;;;;;14.50;11.75;;;;;;;18.59;100.00;99548.50;6303767;22;20018;-81
2022/06/23 02:48:47;;;;;;;11.63;9.65;;;;;;;18.63;100.00;99552.59;6232230;22;20039;-81
2022/06/23 02:51:19;;;;;;;11.50;10.30;;;;;;;18.63;100.00;99555.41;6303999;22;20039;-81
2022/06/23 02:54:06;;;;;;;12.48;11.18;;;;;;;18.54;100.00;99550.00;6303353;22;20391;-81
2022/06/23 02:56:47;;;;;;;12.02;10.73;;;;;;;18.40;100.00;99561.41;6303942;22;20024;-81
2022/06/23 02:59:50;;;;;;;12.38;11.18;;;;;;;18.35;100.00;99588.16;6303772;22;20433;-80
2022/06/23 03:03:03;;;;;;;14.48;11.95;;;;;;;18.29;100.00;99604.19;6305423;22;20086;-81
2022/06/23 03:05:40;;;;;;;13.07;11.75;;;;;;;18.29;100.00;99621.03;6242288;22;20084;-81
2022/06/23 03:08:05;;;;;;;13.68;12.27;;;;;;;18.32;100.00;99620.03;6304433;22;20016;-81
2022/06/23 03:10:40;;;;;;;12.57;11.38;;;;;;;18.27;100.00;99612.38;6279066;22;20060;-81
2022/06/23 03:13:22;;;;;;;14.73;12.85;;;;;;;18.32;100.00;99608.81;6304753;22;20332;-85
2022/06/23 03:16:03;;;;;;;12.95;11.65;;;;;;;18.34;100.00;99597.84;6278288;22;20014;-81
2022/06/23 03:18:55;;;;;;;13.43;12.10;;;;;;;18.36;100.00;99600.91;6305413;22;20092;-80
2022/06/23 03:21:29;;;;;;;14.45;10.90;;;;;;;18.39;100.00;99602.75;6278355;22;20012;-80
2022/06/23 03:24:04;;;;;;;;;;;;;;;18.34;100.00;99603.47;6306313;22;20011;-80
2022/06/23 03:26:37;;;;;;;12.85;11.65;;;;;;;18.22;100.00;99603.88;6278137;22;19942;-80
2022/06/23 03:29:34;;;;;;;13.98;12.63;;;;;;;18.26;100.00;99607.25;6278023;22;20015;-80
2022/06/23 03:32:12;;;;;;;13.95;12.45;;;;;;;18.30;100.00;99600.13;6303770;22;20098;-80
2022/06/23 03:35:10;;;;;;;13.43;12.02;;;;;;;18.41;100.00;99603.00;6277639;22;20043;-80
2022/06/23 03:38:03;;;;;;;15.50;12.32;;;;;;;18.43;100.00;99617.31;6277418;22;20019;-80
2022/06/23 03:43:31;;;;;;;13.05;11.70;;;;;;;18.38;100.00;99626.47;6303796;22;20245;-79
2022/06/23 03:46:13;;;;;;;12.82;11.52;;;;;;;18.36;100.00;99626.19;6305006;22;20456;-80
2022/06/23 03:48:48;;;;;;;15.20;12.57;;;;;;;18.35;100.00;99635.91;6277926;22;20088;-80
2022/06/23 03:51:28;;;;;;;14.10;12.68;;;;;;;18.35;100.00;99643.56;6276730;22;20011;-80
2022/06/23 03:53:56;;;;;;;14.30;12.45;;;;;;;18.36;100.00;99648.66;6252362;22;20356;-80
2022/06/23 03:56:25;;;;;;;14.48;12.98;;;;;;;18.37;100.00;99655.81;6278021;22;20081;-81
2022/06/23 03:59:05;;;;;;;13.23;11.90;;;;;;;18.37;100.00;99650.19;6253127;22;20035;-80
2022/06/23 04:01:49;;;;;;;14.25;12.93;;;;;;;18.35;100.00;99655.56;6277027;22;20078;-80
2022/06/23 04:04:37;;;;;;;15.60;13.18;;;;;;;18.43;100.00;99651.03;6252530;22;20106;-82
2022/06/23 04:07:28;;;;;;;13.70;12.48;;;;;;;18.75;100.00;99650.97;6305247;22;20015;-82
2022/06/23 04:10:03;;;;;;;13.68;12.38;;;;;;;18.68;100.00;99660.66;6276094;22;20106;-82
2022/06/23 04:12:30;;;;;;;13.93;12.57;;;;;;;18.69;100.00;99667.78;6251231;22;20003;-82
2022/06/23 04:15:00;;;;;;;13.93;12.63;;;;;;;18.79;100.00;99668.38;6305656;22;20011;-82
2022/06/23 04:17:34;;;;;;;13.68;12.20;;;;;;;18.61;100.00;99661.09;6305107;22;20011;-82
2022/06/23 04:20:13;;;;;;;13.82;12.43;;;;;;;18.80;100.00;99661.50;6305306;22;20007;-82
2022/06/23 04:22:50;;;;;;;14.32;12.40;;;;;;;18.93;100.00;99664.59;6277445;22;20015;-82
2022/06/23 04:25:25;;;;;;;17.88;16.17;;;;;;;18.95;100.00;99676.13;6303840;22;20011;-82
2022/06/23 04:27:54;;;;;;;15.77;12.82;;;;;;;18.94;100.00;99683.00;6303090;22;20086;-82
2022/06/23 04:30:26;;;;;;;14.52;13.23;;;;;;;18.92;100.00;99679.94;6276785;22;20314;-82
2022/06/23 04:32:53;;;;;;;15.38;13.88;;;;;;;18.79;100.00;99676.81;6304914;22;20012;-82
2022/06/23 04:35:26;;;;;;;14.77;13.07;;;;;;;18.99;100.00;99679.47;6304623;22;20014;-82
2022/06/23 04:38:11;;;;;;;12.65;11.38;;;;;;;19.18;100.00;99693.84;6278170;22;20043;-82
2022/06/23 04:40:46;;;;;;;12.85;11.60;;;;;;;19.16;100.00;99688.75;6305075;22;20021;-82
2022/06/23 04:43:22;;;;;;;13.30;11.98;;;;;;;19.14;100.00;99690.50;6277064;22;20061;-82
2022/06/23 04:45:55;;;;;;;14.00;12.57;;;;;;;18.94;100.00;99694.25;6277769;22;20436;-82
2022/06/23 04:48:47;;;;;;;13.25;12.02;;;;;;;18.94;100.00;99702.69;6276936;22;20529;-83
2022/06/23 04:51:23;;;;;;;13.73;12.30;;;;;;;18.93;100.00;99715.19;6246223;22;20461;-82
2022/06/23 04:53:56;;;;;;;15.00;13.48;;;;;;;18.98;100.00;99711.66;6276643;22;20019;-83
2022/06/23 04:56:42;;;;;;;14.20;12.90;;;;;;;19.13;100.00;99711.50;6277856;22;20033;-82
2022/06/23 04:59:40;;;;;;;12.48;11.27;;;;;;;19.34;100.00;99710.03;6304219;22;20011;-82
2022/06/23 05:02:44;;;;;;;13.60;12.02;;;;;;;19.49;100.00;99719.84;6276671;22;20423;-82
2022/06/23 05:05:19;;;;;;;16.27;11.88;;;;;;;19.35;100.00;99731.25;6239793;22;20015;-82
2022/06/23 05:07:54;;;;;;;12.90;10.82;;;;;;;19.43;100.00;99735.94;6276447;22;20102;-86
2022/06/23 05:10:31;;;;;;;11.35;10.23;;;;;;;19.43;100.00;99730.31;6303379;22;20007;-86
2022/06/23 05:13:07;;;;;;;11.85;10.75;;;;;;;19.51;100.00;99728.56;6252073;22;20081;-86
2022/06/23 05:15:41;;;;;;;12.65;10.38;;;;;;;19.70;100.00;99722.47;6302869;22;20012;-86
2022/06/23 05:18:14;;;;;;;12.00;9.63;;;;;;;19.75;100.00;99728.13;6302380;22;20015;-86
2022/06/23 05:20:39;;;;;;;11.00;9.90;;;;;;;19.69;100.00;99735.00;6271996;22;20031;-87
2022/06/23 05:23:05;;;;;;;11.02;9.93;;;;;;;19.73;100.00;99741.16;6300159;22;20015;-86
2022/06/23 05:26:02;;;;;;;13.20;10.10;;;;;;;19.62;100.00;99746.72;6272065;22;20396;-86
2022/06/23 05:28:31;;;;;;;12.57;10.13;;;;;;;19.37;100.00;99749.16;6300730;22;20021;-86
2022/06/23 05:31:04;;;;;;;12.85;11.65;;;;;;;19.52;100.00;99755.41;6274494;22;20393;-86
2022/06/23 05:33:33;;;;;;;15.13;11.90;;;;;;;19.55;100.00;99754.41;6274887;22;20015;-85
2022/06/23 05:36:05;;;;;;;13.70;11.18;;;;;;;19.70;100.00;99753.41;6249245;22;20280;-86
2022/06/23 05:38:40;;;;;;;11.93;10.67;;;;;;;19.75;100.00;99750.63;6303058;22;20064;-85
2022/06/23 05:41:28;;;;;;;12.13;10.55;;;;;;;19.65;100.00;99751.38;6274623;22;20019;-86
2022/06/23 05:43:56;;;;;;;11.93;10.73;;;;;;;19.77;100.00;99750.13;6302531;22;20088;-86
2022/06/23 05:46:25;;;;;;;12.40;11.15;;;;;;;20.00;100.00;99757.34;6275051;22;20014;-82
2022/06/23 05:49:02;;;;;;;11.98;10.75;;;;;;;19.98;100.00;99757.06;6298759;22;20067;-82
2022/06/23 05:51:35;;;;;;;11.48;10.45;;;;;;;19.86;100.00;99761.13;6273424;22;20030;-82
2022/06/23 05:54:07;;;;;;;12.30;10.38;;;;;;;20.00;100.00;99760.16;6273370;22;20035;-81
2022/06/23 05:56:43;;;;;;;13.85;10.13;;;;;;;19.87;100.00;99765.50;6300733;22;20015;-82
2022/06/23 05:59:18;;;;;;;11.50;10.30;;;;;;;19.79;100.00;99765.22;6276117;22;20019;-85
2022/06/23 06:01:55;;;;;;;11.25;10.13;;;;;;;20.06;100.00;99760.94;6303101;22;20014;-85
2022/06/23 06:04:22;;;;;;;13.50;10.40;;;;;;;20.26;100.00;99762.78;6300155;22;20027;-85
2022/06/23 06:06:47;;;;;;;10.70;9.70;;;;;;;20.21;100.00;99761.50;6274484;22;20118;-85
2022/06/23 06:12:00;;;;;;;12.70;11.43;;;;;;;20.53;100.00;99758.47;6276873;22;20012;-85
2022/06/23 06:14:30;;;;;;;12.70;9.52;;;;;;;20.35;100.00;99763.31;6272881;22;20003;-85
2022/06/23 06:16:59;;;;;;;12.18;11.07;;;;;;;20.54;100.00;99762.81;6302202;22;20363;-85
2022/06/23 06:19:26;;;;;;;11.90;10.65;;;;;;;20.53;100.00;99747.19;6277407;22;20019;-85
2022/06/23 06:21:55;;;;;;;12.90;11.48;;;;;;;20.48;100.00;99749.50;6278071;22;20015;-85
2022/06/23 06:24:28;;;;;;;12.50;11.20;;;;;;;20.52;100.00;99754.88;6276705;22;20034;-85
2022/06/23 06:26:54;;;;;;;12.23;10.95;;;;;;;20.81;100.00;99756.41;6277903;22;20453;-84
2022/06/23 06:29:23;;;;;;;11.23;10.23;;;;;;;21.02;100.00;99759.69;6277051;22;20003;-84
2022/06/23 06:32:34;;;;;;;11.60;10.00;;;;;;;21.26;100.00;99759.94;6304729;22;20011;-83
2022/06/23 06:35:03;;;;;;;11.60;10.40;;;;;;;21.72;100.00;99756.41;6150646;23;20388;-83
2022/06/23 06:37:33;;;;;;;14.10;10.35;;;;;;;21.58;100.00;99757.50;6124192;23;20288;-83
2022/06/23 06:40:00;;;;;;;10.82;9.60;;;;;;;21.95;100.00;99757.84;6212716;22;20011;-83
2022/06/23 06:42:56;;;;;;;9.82;8.80;;;;;;;22.03;100.00;99769.38;6279376;22;20006;-83
2022/06/23 06:45:27;;;;;;;11.18;9.07;;;;;;;22.13;100.00;99774.16;6273286;22;20015;-83
2022/06/23 06:47:53;;;;;;;9.88;8.90;;;;;;;22.23;100.00;99766.94;6277623;22;20007;-83
2022/06/23 06:50:18;;;;;;;9.30;8.35;;;;;;;22.17;100.00;99768.25;6303979;22;20073;-83
2022/06/23 06:52:45;;;;;;;9.35;8.20;;;;;;;21.99;99.83;99764.00;6304951;22;20049;-83
2022/06/23 06:55:15;;;;;;;9.32;8.13;;;;;;;22.07;98.19;99770.63;6276582;22;20413;-83
2022/06/23 06:57:47;;;;;;;10.13;9.13;;;;;;;22.29;98.14;99773.28;6249943;22;20034;-84
2022/06/23 07:00:14;;;;;;;10.90;8.82;;;;;;;22.61;100.00;99764.31;6275833;22;20095;-83
2022/06/23 07:02:46;;;;;;;9.68;8.10;;;;;;;22.85;99.53;99772.88;6277017;22;20003;-83
2022/06/23 07:05:23;;;;;;;11.38;8.25;;;;;;;23.05;97.30;99775.25;6277121;22;20014;-83
2022/06/23 07:08:17;;;;;;;10.45;8.68;;;;;;;23.16;94.96;99777.22;6277723;22;20019;-83
2022/06/23 07:10:46;;;;;;;10.23;9.18;;;;;;;23.44;98.56;99780.53;6187037;22;20437;-83
2022/06/23 07:13:17;;;;;;;9.38;8.43;;;;;;;23.55;95.00;99783.22;6279757;22;20011;-83
2022/06/23 07:15:53;;;;;;;10.57;8.27;;;;;;;23.94;93.43;99782.72;6279595;22;20007;-83
2022/06/23 07:18:22;;;;;;;8.95;7.85;;;;;;;23.63;89.10;99792.66;6279782;22;20057;-83
2022/06/23 07:21:01;;;;;;;9.20;8.23;;;;;;;23.88;91.07;99795.44;6279572;22;20391;-83
2022/06/23 07:23:27;;;;;;;13.02;7.78;;;;;;;23.86;88.02;99792.38;6278810;22;20440;-83
2022/06/23 07:26:04;;;;;;;9.43;8.43;;;;;;;23.59;87.96;99797.06;6306419;22;20019;-83
2022/06/23 07:28:37;;;;;;;8.52;7.63;;;;;;;24.04;87.33;99802.94;6305782;22;20034;-84
2022/06/23 07:31:15;;;;;;;10.45;8.20;;;;;;;23.90;86.85;99801.34;6306574;22;20449;-84
2022/06/23 07:33:52;;;;;;;9.27;8.32;;;;;;;24.27;89.53;99795.66;6305705;22;20019;-83
2022/06/23 07:36:23;;;;;;;8.80;8.00;;;;;;;24.23;88.80;99798.06;6253971;22;20518;-83
2022/06/23 07:39:03;;;;;;;10.68;7.97;;;;;;;24.11;87.92;99785.31;6278728;22;20069;-83
2022/06/23 07:41:42;;;;;;;7.75;7.05;;;;;;;23.61;82.06;99794.50;6279262;22;20027;-83
2022/06/23 07:44:13;;;;;;;7.82;7.03;;;;;;;23.46;85.15;99799.78;6253198;22;20019;-83
2022/06/23 07:46:39;;;;;;;10.55;7.15;;;;;;;23.24;84.77;99787.41;6278557;22;20022;-83
2022/06/23 07:49:06;;;;;;;9.68;8.07;;;;;;;23.49;88.29;99793.84;6278510;22;20357;-83
2022/06/23 07:51:31;;;;;;;9.43;7.85;;;;;;;23.54;84.89;99797.91;6305985;22;20439;-83
2022/06/23 07:53:57;;;;;;;9.52;7.30;;;;;;;23.48;84.78;99797.97;6305709;22;20034;-83
2022/06/23 07:56:29;;;;;;;12.18;7.40;;;;;;;23.61;87.37;99803.75;6278893;22;20405;-83
2022/06/23 07:58:57;;;;;;;8.55;7.75;;;;;;;23.61;86.24;99805.81;6278904;22;20015;-83
2022/06/23 08:01:31;;;;;;;10.63;7.70;;;;;;;23.81;83.13;99813.03;6278805;22;20015;-83
2022/06/23 08:04:09;;;;;;;8.90;7.57;;;;;;;23.76;82.41;99822.34;6278575;22;20374;-83
2022/06/23 08:06:35;;;;;;;10.35;7.60;;;;;;;23.55;81.88;99819.25;6306133;22;20026;-83
2022/06/23 08:09:06;;;;;;;9.32;7.45;;;;;;;23.79;82.47;99822.06;6305801;22;20015;-83
2022/06/23 08:14:25;;;;;;;10.73;9.05;;;;;;;23.45;89.49;99818.09;6282857;22;20013;-83
2022/06/23 08:16:51;;;;;;;10.70;8.00;;;;;;;23.53;86.52;99836.78;6306531;22;20021;-83
2022/06/23 08:19:32;;;;;;;10.68;6.95;;;;;;;23.67;81.92;99832.75;6227389;22;20413;-83
2022/06/23 08:22:06;;;;;;;10.00;6.75;;;;;;;23.54;78.70;99829.81;6278924;22;20015;-83
2022/06/23 08:24:32;;;;;;;7.72;6.80;;;;;;;23.49;82.72;99827.06;6305183;22;20011;-83
2022/06/23 08:27:18;;;;;;;9.15;6.60;;;;;;;23.54;80.02;99824.16;6253479;22;20014;-83
2022/06/23 08:29:47;;;;;;;7.18;6.45;;;;;;;23.79;79.18;99833.38;6278035;22;20091;-83
2022/06/23 08:32:13;;;;;;;8.50;6.65;;;;;;;24.14;79.00;99824.69;6278772;22;20322;-83
2022/06/23 08:34:51;;;;;;;11.32;6.88;;;;;;;24.33;76.63;99821.09;6278075;22;20011;-83
2022/06/23 08:37:22;;;;;;;10.27;6.65;;;;;;;24.50;78.14;99818.78;6278529;22;20467;-83
2022/06/23 08:40:05;;;;;;;7.70;6.78;;;;;;;25.33;71.88;99816.63;6305614;22;20011;-83
2022/06/23 08:42:51;;;;;;;9.95;6.50;;;;;;;25.56;71.77;99819.84;6278702;22;20031;-83
2022/06/23 08:45:38;;;;;;;7.45;6.07;;;;;;;25.74;71.89;99816.13;6305852;22;20011;-83
2022/06/23 08:48:15;;;;;;;8.60;6.70;;;;;;;25.55;75.00;99819.06;6306148;22;20523;-83
2022/06/23 08:51:02;;;;;;;8.27;7.50;;;;;;;24.98;75.05;99821.38;6305059;22;20007;-84
2022/06/23 08:54:03;;;;;;;8.20;7.03;;;;;;;24.88;77.27;99814.59;6278144;22;20019;-83
2022/06/23 08:56:54;;;;;;;9.70;6.75;;;;;;;25.06;76.01;99807.31;6192108;22;20130;-84
2022/06/23 08:59:30;;;;;;;9.90;7.30;;;;;;;25.17;79.98;99812.03;6274886;22;20019;-83
2022/06/23 09:02:04;;;;;;;8.10;6.85;;;;;;;24.75;81.37;99823.03;6302690;22;20330;-84
2022/06/23 09:04:51;;;;;;;9.38;6.88;;;;;;;24.94;78.65;99817.34;6277347;22;20093;-83
2022/06/23 09:07:34;;;;;;;7.20;6.47;;;;;;;24.62;74.48;99811.66;6278364;22;20046;-83
2022/06/23 09:10:41;;;;;;;7.38;6.68;;;;;;;24.46;76.42;99824.78;6304162;22;20015;-83
2022/06/23 09:13:27;;;;;;;9.20;6.60;;;;;;;24.62;79.46;99823.00;6305024;22;20012;-83
2022/06/23 09:16:00;;;;;;;7.50;6.15;;;;;;;24.49;73.64;99825.78;6305193;22;20011;-83
2022/06/23 09:18:48;;;;;;;9.77;6.88;;;;;;;24.40;75.22;99829.75;6277416;22;20018;-83
2022/06/23 09:21:43;;;;;;;7.85;6.13;;;;;;;24.73;76.24;99822.03;6277673;22;20026;-83
2022/06/23 09:24:11;;;;;;;9.13;6.13;;;;;;;25.14;73.65;99830.16;6305203;22;20015;-84
2022/06/23 09:26:39;;;;;;;7.32;6.20;;;;;;;25.60;71.99;99818.19;6304659;22;20010;-84
2022/06/23 09:29:22;;;;;;;8.20;6.45;;;;;;;25.74;70.55;99824.63;6304662;22;20030;-84
2022/06/23 09:31:58;;;;;;;;;;;;;;;25.55;70.80;99827.59;6305499;22;20023;-83
2022/06/23 09:34:34;;;;;;;7.82;5.90;;;;;;;25.90;68.38;99832.81;6304887;22;20340;-83
2022/06/23 09:37:23;;;;;;;6.88;6.15;;;;;;;25.58;67.00;99832.19;6252399;22;20011;-83
2022/06/23 09:40:04;;;;;;;7.50;5.47;;;;;;;25.82;68.74;99839.72;6304402;22;20090;-83
2022/06/23 09:42:50;;;;;;;9.20;5.93;;;;;;;26.67;69.22;99832.41;6304836;22;20541;-83
2022/06/23 09:45:22;;;;;;;6.35;5.45;;;;;;;27.09;65.48;99816.13;6305289;22;20375;-83
2022/06/23 09:48:05;;;;;;;7.30;5.18;;;;;;;27.25;62.12;99831.25;6305249;22;20011;-83
2022/06/23 09:50:52;;;;;;;10.38;5.25;;;;;;;27.58;59.88;99816.09;6304781;22;20441;-83
2022/06/23 09:53:36;;;;;;;6.47;5.47;;;;;;;27.39;59.63;99821.25;6305184;22;20019;-83
2022/06/23 09:56:14;;;;;;;5.88;4.65;;;;;;;27.38;56.11;99819.00;6305112;22;20038;-83
2022/06/23 09:59:09;;;;;;;6.22;5.10;;;;;;;27.63;56.09;99820.13;6305016;22;20011;-83
2022/06/23 10:02:02;;;;;;;7.55;5.57;;;;;;;28.19;56.59;99822.09;6227063;22;20019;-84
2022/06/23 10:05:05;;;;;;;8.70;4.38;;;;;;;28.37;55.25;99820.28;6304259;22;20018;-83
2022/06/23 10:07:48;;;;;;;6.95;4.03;;;;;;;28.62;53.10;99836.31;6304888;22;20449;-84
2022/06/23 10:10:32;;;;;;;4.85;3.60;;;;;;;27.94;46.73;99833.22;6304707;22;20042;-83
2022/06/23 10:13:03;;;;;;;;;;;;;;;27.88;50.72;99831.84;6305626;22;20007;-84
2022/06/23 10:15:53;;;;;;;4.57;3.85;;;;;;;28.37;47.48;99834.53;6277617;22;19911;-84
2022/06/23 10:19:00;;;;;;;7.53;3.70;;;;;;;28.35;45.00;99840.81;6282929;22;20063;-84
2022/06/23 10:22:03;;;;;;;7.72;3.95;;;;;;;28.34;45.72;99827.88;6308415;22;20011;-84
2022/06/23 10:24:37;;;;;;;7.20;4.20;;;;;;;28.81;47.28;99835.22;6304711;22;20471;-83
2022/06/23 10:27:28;;;;;;;6.32;4.28;;;;;;;28.61;47.38;99839.75;6306230;22;20011;-82
2022/06/23 10:30:12;;;;;;;4.10;3.70;;;;;;;28.87;48.48;99830.09;6304536;22;20456;-84
2022/06/23 10:32:51;;;;;;;6.38;4.60;;;;;;;28.85;47.09;99822.09;6305998;22;20014;-83
2022/06/23 10:35:25;;;;;;;4.93;4.00;;;;;;;28.82;45.56;99828.19;6305670;22;20007;-84
2022/06/23 10:38:09;;;;;;;5.35;3.80;;;;;;;28.48;46.63;99829.25;6277872;22;20011;-83
2022/06/23 10:41:17;;;;;;;4.32;3.63;;;;;;;28.36;44.79;99825.22;6304531;22;20467;-84
2022/06/23 10:43:58;;;;;;;4.43;3.90;;;;;;;28.76;47.51;99810.47;6220026;22;20360;-84
2022/06/23 10:47:03;;;;;;;5.43;3.53;;;;;;;28.74;47.63;99822.47;6277726;22;20448;-83
2022/06/23 10:49:44;;;;;;;4.25;3.67;;;;;;;29.08;45.81;99814.31;6297555;22;20023;-84
2022/06/23 10:52:23;;;;;;;5.25;3.63;;;;;;;29.08;43.41;99822.09;6305174;22;20011;-83
2022/06/23 10:54:57;;;;;;;5.10;3.58;;;;;;;29.53;43.57;99819.22;6306231;22;20897;-84
2022/06/23 10:57:40;;;;;;;5.65;3.63;;;;;;;29.85;45.40;99803.50;6306741;22;20015;-84
2022/06/23 11:00:22;;;;;;;3.67;3.30;;;;;;;30.25;42.15;99807.19;6279179;22;20086;-84
2022/06/23 11:03:00;;;;;;;3.65;2.92;;;;;;;30.42;37.40;99815.09;6278085;22;20011;-84
2022/06/23 11:05:44;;;;;;;4.15;2.50;;;;;;;30.61;39.98;99820.38;6304562;22;20038;-89
2022/06/23 11:08:26;;;;;;;4.10;3.20;;;;;;;29.77;38.80;99819.94;6303824;22;20050;-87
2022/06/23 11:11:00;;;;;;;3.15;2.38;;;;;;;29.79;39.38;99817.28;6276045;22;20015;-87
2022/06/23 11:13:34;;;;;;;5.00;2.95;;;;;;;30.08;38.06;99807.09;6276511;22;20011;-87
2022/06/23 11:16:19;;;;;;;5.63;2.75;;;;;;;30.27;40.44;99813.09;6305395;22;20393;-88
2022/06/23 11:18:50;;;;;;;5.50;2.50;;;;;;;30.33;36.65;99813.63;6305759;22;20027;-87
2022/06/23 11:21:27;;;;;;;4.43;2.47;;;;;;;30.19;36.78;99803.78;6308935;22;20053;-87
2022/06/23 11:24:04;;;;;;;3.17;2.42;;;;;;;30.54;36.98;99810.47;6305415;22;20011;-87
2022/06/23 11:27:01;;;;;;;4.68;2.42;;;;;;;30.47;35.59;99806.31;6278069;22;20011;-87
2022/06/23 11:29:54;;;;;;;3.38;2.40;;;;;;;30.05;36.33;99800.41;6253809;22;20011;-87
2022/06/23 11:32:38;;;;;;;4.95;2.60;;;;;;;29.44;35.35;99802.66;6309545;22;20073;-88
2022/06/23 11:35:25;;;;;;;5.15;2.67;;;;;;;29.87;38.36;99800.88;6308265;22;20015;-89
2022/06/23 11:38:13;;;;;;;2.60;2.35;;;;;;;30.29;34.63;99796.09;6279598;22;20008;-89
2022/06/23 11:40:42;;;;;;;5.60;2.60;;;;;;;30.16;37.28;99784.94;6283044;22;20414;-89
2022/06/23 11:43:24;;;;;;;2.88;2.33;;;;;;;30.14;34.55;99784.72;6281644;22;20424;-87
2022/06/23 11:46:12;;;;;;;4.10;2.43;;;;;;;30.16;33.92;99784.94;6253280;22;20718;-89
2022/06/23 11:48:52;;;;;;;3.42;3.08;;;;;;;30.01;36.41;99777.16;6307046;22;20296;-89
2022/06/23 11:51:40;;;;;;;3.28;2.80;;;;;;;30.01;34.90;99784.97;6307480;22;20090;-83
2022/06/23 11:54:10;;;;;;;6.55;2.53;;;;;;;29.70;34.46;99781.47;6279534;22;20015;-83
2022/06/23 11:56:39;;;;;;;4.35;2.50;;;;;;;30.40;34.71;99777.72;6278247;22;20026;-83
2022/06/23 11:59:44;;;;;;;3.10;2.45;;;;;;;30.79;32.95;99773.28;6279106;22;20018;-83
2022/06/23 12:02:10;;;;;;;2.97;2.33;;;;;;;30.72;34.24;99777.72;6258468;22;20467;-83
2022/06/23 12:04:45;;;;;;;3.40;2.55;;;;;;;30.79;33.87;99779.75;6306410;22;20007;-83
2022/06/23 12:07:20;;;;;;;4.05;2.40;;;;;;;30.62;34.67;99776.06;6278723;22;20496;-83
2022/06/23 12:10:19;;;;;;;4.00;2.63;;;;;;;30.94;32.95;99785.34;6278683;22;20015;-83
2022/06/23 12:12:48;;;;;;;4.30;2.60;;;;;;;30.33;34.66;99779.28;6279265;22;20077;-83
2022/06/23 12:15:18;;;;;;;3.25;2.47;;;;;;;31.10;33.35;99774.56;6277861;22;20012;-83
2022/06/23 12:17:51;;;;;;;3.53;2.60;;;;;;;31.05;33.62;99784.16;6278134;22;20336;-83
2022/06/23 12:20:31;;;;;;;5.10;2.75;;;;;;;30.61;34.21;99783.16;6278835;22;20011;-83
2022/06/23 12:23:21;;;;;;;3.42;2.50;;;;;;;29.96;32.87;99785.97;6278864;22;20399;-83
2022/06/23 12:25:59;;;;;;;3.20;2.53;;;;;;;29.86;33.93;99773.59;6281596;22;20015;-83